sensor_id;sensor_type;location;lat;lon;timestamp;pressure;altitude;pressure_sealevel;temperature;humidity
43824;BME280;29470;53.550;9.926;2023-03-01T00:00:06;102800.63;;;3.19;65.29
43824;BME280;29470;53.550;9.926;2023-03-01T00:05:12;102806.38;;;3.11;65.57
43824;BME280;29470;53.550;9.926;2023-03-01T00:10:15;102805.78;;;3.06;66.59
43824;BME280;29470;53.550;9.926;2023-03-01T00:15:19;102806.06;;;3.28;66.55
43824;BME280;29470;53.550;9.926;2023-03-01T00:20:21;102795.16;;;3.49;64.89
43824;BME280;29470;53.550;9.926;2023-03-01T00:25:24;102786.31;;;3.27;66.60
43824;BME280;29470;53.550;9.926;2023-03-01T00:30:29;102793.59;;;3.11;66.79
43824;BME280;29470;53.550;9.926;2023-03-01T00:35:32;102800.13;;;3.09;68.20
43824;BME280;29470;53.550;9.926;2023-03-01T00:40:35;102801.47;;;3.00;68.19
43824;BME280;29470;53.550;9.926;2023-03-01T00:45:39;102791.03;;;3.11;67.66
43824;BME280;29470;53.550;9.926;2023-03-01T00:50:42;102784.72;;;2.89;69.63
43824;BME280;29470;53.550;9.926;2023-03-01T00:55:45;102789.63;;;3.00;68.85
43824;BME280;29470;53.550;9.926;2023-03-01T01:00:49;102783.38;;;2.85;70.79
43824;BME280;29470;53.550;9.926;2023-03-01T01:05:52;102787.88;;;2.80;70.74
43824;BME280;29470;53.550;9.926;2023-03-01T01:10:55;102780.72;;;2.65;71.80
43824;BME280;29470;53.550;9.926;2023-03-01T01:16:01;102777.44;;;2.66;71.25
43824;BME280;29470;53.550;9.926;2023-03-01T01:21:06;102775.81;;;2.92;69.94
43824;BME280;29470;53.550;9.926;2023-03-01T01:26:12;102761.00;;;2.90;68.83
43824;BME280;29470;53.550;9.926;2023-03-01T01:31:17;102764.72;;;3.12;67.08
43824;BME280;29470;53.550;9.926;2023-03-01T01:36:20;102761.47;;;3.13;66.80
43824;BME280;29470;53.550;9.926;2023-03-01T01:41:24;102754.94;;;3.02;66.27
43824;BME280;29470;53.550;9.926;2023-03-01T01:46:31;102752.81;;;2.67;67.48
43824;BME280;29470;53.550;9.926;2023-03-01T01:51:37;102740.69;;;2.58;67.12
43824;BME280;29470;53.550;9.926;2023-03-01T01:56:44;102743.19;;;2.84;65.73
43824;BME280;29470;53.550;9.926;2023-03-01T02:01:52;102736.56;;;2.66;64.03
43824;BME280;29470;53.550;9.926;2023-03-01T02:06:59;102739.63;;;2.76;63.59
43824;BME280;29470;53.550;9.926;2023-03-01T02:12:04;102732.34;;;3.05;62.34
43824;BME280;29470;53.550;9.926;2023-03-01T02:17:09;102725.31;;;3.30;60.46
43824;BME280;29470;53.550;9.926;2023-03-01T02:22:17;102728.84;;;3.05;61.21
43824;BME280;29470;53.550;9.926;2023-03-01T02:27:29;102732.13;;;3.04;61.50
43824;BME280;29470;53.550;9.926;2023-03-01T02:32:35;102730.94;;;2.82;62.71
43824;BME280;29470;53.550;9.926;2023-03-01T02:37:39;102725.31;;;2.45;63.54
43824;BME280;29470;53.550;9.926;2023-03-01T02:42:47;102728.22;;;2.54;63.90
43824;BME280;29470;53.550;9.926;2023-03-01T02:47:55;102727.38;;;2.61;62.55
43824;BME280;29470;53.550;9.926;2023-03-01T02:53:01;102732.06;;;2.58;61.70
43824;BME280;29470;53.550;9.926;2023-03-01T02:58:05;102721.84;;;2.84;60.96
43824;BME280;29470;53.550;9.926;2023-03-01T03:03:10;102704.78;;;2.64;61.14
43824;BME280;29470;53.550;9.926;2023-03-01T03:08:15;102708.16;;;2.70;61.60
43824;BME280;29470;53.550;9.926;2023-03-01T03:13:26;102716.66;;;2.50;62.32
43824;BME280;29470;53.550;9.926;2023-03-01T03:18:31;102713.69;;;2.47;62.18
43824;BME280;29470;53.550;9.926;2023-03-01T03:23:34;102704.69;;;2.57;61.66
43824;BME280;29470;53.550;9.926;2023-03-01T03:28:37;102709.19;;;2.52;62.98
43824;BME280;29470;53.550;9.926;2023-03-01T03:33:42;102696.41;;;2.65;62.22
43824;BME280;29470;53.550;9.926;2023-03-01T03:38:45;102696.88;;;2.88;60.95
43824;BME280;29470;53.550;9.926;2023-03-01T03:43:48;102696.88;;;3.01;60.06
43824;BME280;29470;53.550;9.926;2023-03-01T03:48:53;102688.47;;;3.02;59.03
43824;BME280;29470;53.550;9.926;2023-03-01T03:53:55;102693.34;;;3.14;57.93
43824;BME280;29470;53.550;9.926;2023-03-01T03:58:58;102681.84;;;3.30;58.76
43824;BME280;29470;53.550;9.926;2023-03-01T04:04:02;102679.88;;;3.55;57.50
43824;BME280;29470;53.550;9.926;2023-03-01T04:09:05;102672.59;;;3.38;57.81
43824;BME280;29470;53.550;9.926;2023-03-01T04:14:09;102671.28;;;3.34;58.32
43824;BME280;29470;53.550;9.926;2023-03-01T04:19:13;102669.06;;;3.30;60.13
43824;BME280;29470;53.550;9.926;2023-03-01T04:24:16;102664.34;;;3.53;59.94
43824;BME280;29470;53.550;9.926;2023-03-01T04:29:19;102663.81;;;3.76;59.21
43824;BME280;29470;53.550;9.926;2023-03-01T04:34:23;102670.75;;;3.77;58.87
43824;BME280;29470;53.550;9.926;2023-03-01T04:39:28;102673.34;;;4.32;57.61
43824;BME280;29470;53.550;9.926;2023-03-01T04:44:31;102670.88;;;3.92;56.90
43824;BME280;29470;53.550;9.926;2023-03-01T04:49:35;102672.28;;;4.37;56.07
43824;BME280;29470;53.550;9.926;2023-03-01T04:54:37;102672.47;;;4.39;56.15
43824;BME280;29470;53.550;9.926;2023-03-01T04:59:40;102671.56;;;4.46;56.83
43824;BME280;29470;53.550;9.926;2023-03-01T05:04:44;102664.50;;;3.95;57.23
43824;BME280;29470;53.550;9.926;2023-03-01T05:09:47;102668.09;;;3.90;58.43
43824;BME280;29470;53.550;9.926;2023-03-01T05:14:50;102661.88;;;3.88;59.04
43824;BME280;29470;53.550;9.926;2023-03-01T05:19:55;102653.28;;;3.67;58.82
43824;BME280;29470;53.550;9.926;2023-03-01T05:25:01;102659.91;;;3.93;58.82
43824;BME280;29470;53.550;9.926;2023-03-01T05:30:04;102663.25;;;3.99;58.07
43824;BME280;29470;53.550;9.926;2023-03-01T05:35:17;102658.31;;;4.01;57.50
43824;BME280;29470;53.550;9.926;2023-03-01T05:40:22;102665.50;;;3.83;58.54
43824;BME280;29470;53.550;9.926;2023-03-01T05:45:26;102663.03;;;4.52;57.75
43824;BME280;29470;53.550;9.926;2023-03-01T05:50:33;102652.16;;;4.13;56.81
43824;BME280;29470;53.550;9.926;2023-03-01T05:55:37;102645.03;;;4.10;57.58
43824;BME280;29470;53.550;9.926;2023-03-01T06:00:41;102642.56;;;4.60;56.85
43824;BME280;29470;53.550;9.926;2023-03-01T06:05:45;102640.53;;;5.06;54.00
43824;BME280;29470;53.550;9.926;2023-03-01T06:10:48;102648.16;;;4.84;55.51
43824;BME280;29470;53.550;9.926;2023-03-01T06:15:51;102636.28;;;4.16;57.80
43824;BME280;29470;53.550;9.926;2023-03-01T06:20:56;102643.06;;;4.57;57.17
43824;BME280;29470;53.550;9.926;2023-03-01T06:25:59;102630.91;;;4.07;58.12
43824;BME280;29470;53.550;9.926;2023-03-01T06:31:03;102641.13;;;4.27;59.37
43824;BME280;29470;53.550;9.926;2023-03-01T06:36:12;102638.91;;;4.65;58.11
43824;BME280;29470;53.550;9.926;2023-03-01T06:41:14;102647.41;;;4.85;57.40
43824;BME280;29470;53.550;9.926;2023-03-01T06:46:18;102652.13;;;4.75;58.21
43824;BME280;29470;53.550;9.926;2023-03-01T06:51:22;102646.41;;;5.34;56.18
43824;BME280;29470;53.550;9.926;2023-03-01T06:56:24;102664.97;;;4.75;57.33
43824;BME280;29470;53.550;9.926;2023-03-01T07:01:28;102654.09;;;4.63;57.83
43824;BME280;29470;53.550;9.926;2023-03-01T07:06:32;102657.78;;;4.31;57.46
43824;BME280;29470;53.550;9.926;2023-03-01T07:11:35;102648.72;;;4.96;56.63
43824;BME280;29470;53.550;9.926;2023-03-01T07:16:38;102643.41;;;4.95;57.42
43824;BME280;29470;53.550;9.926;2023-03-01T07:21:42;102642.34;;;5.00;58.05
43824;BME280;29470;53.550;9.926;2023-03-01T07:26:48;102633.59;;;5.27;57.62
43824;BME280;29470;53.550;9.926;2023-03-01T07:31:51;102636.38;;;6.08;53.95
43824;BME280;29470;53.550;9.926;2023-03-01T07:36:55;102621.25;;;6.18;50.92
43824;BME280;29470;53.550;9.926;2023-03-01T07:41:58;102621.47;;;5.98;53.08
43824;BME280;29470;53.550;9.926;2023-03-01T07:47:01;102622.19;;;5.97;51.85
43824;BME280;29470;53.550;9.926;2023-03-01T07:52:05;102625.50;;;6.70;52.79
43824;BME280;29470;53.550;9.926;2023-03-01T07:57:08;102628.81;;;6.17;53.20
43824;BME280;29470;53.550;9.926;2023-03-01T08:02:11;102624.94;;;7.03;53.25
43824;BME280;29470;53.550;9.926;2023-03-01T08:07:15;102622.03;;;6.70;52.63
43824;BME280;29470;53.550;9.926;2023-03-01T08:12:18;102634.56;;;6.59;52.98
43824;BME280;29470;53.550;9.926;2023-03-01T08:17:20;102648.47;;;5.73;55.29
43824;BME280;29470;53.550;9.926;2023-03-01T08:22:25;102643.13;;;5.86;55.56
43824;BME280;29470;53.550;9.926;2023-03-01T08:27:27;102634.25;;;6.42;54.91
43824;BME280;29470;53.550;9.926;2023-03-01T08:32:35;102627.69;;;6.74;53.59
43824;BME280;29470;53.550;9.926;2023-03-01T08:37:40;102629.59;;;6.99;53.69
43824;BME280;29470;53.550;9.926;2023-03-01T08:42:42;102626.97;;;7.06;54.08
43824;BME280;29470;53.550;9.926;2023-03-01T08:47:45;102617.13;;;7.88;53.07
43824;BME280;29470;53.550;9.926;2023-03-01T08:52:50;102613.78;;;7.49;53.54
43824;BME280;29470;53.550;9.926;2023-03-01T08:57:52;102625.22;;;7.44;53.42
43824;BME280;29470;53.550;9.926;2023-03-01T09:02:55;102626.34;;;7.86;52.74
43824;BME280;29470;53.550;9.926;2023-03-01T09:07:59;102625.50;;;8.65;51.64
43824;BME280;29470;53.550;9.926;2023-03-01T09:13:02;102618.97;;;9.10;50.66
43824;BME280;29470;53.550;9.926;2023-03-01T09:18:05;102619.72;;;9.34;50.89
43824;BME280;29470;53.550;9.926;2023-03-01T09:23:09;102630.31;;;8.30;52.71
43824;BME280;29470;53.550;9.926;2023-03-01T09:28:12;102621.88;;;9.38;49.93
43824;BME280;29470;53.550;9.926;2023-03-01T09:33:31;102628.78;;;8.80;51.33
43824;BME280;29470;53.550;9.926;2023-03-01T09:38:35;102625.50;;;9.65;49.34
43824;BME280;29470;53.550;9.926;2023-03-01T09:43:43;102626.16;;;9.46;49.71
43824;BME280;29470;53.550;9.926;2023-03-01T09:48:51;102620.22;;;9.38;49.61
43824;BME280;29470;53.550;9.926;2023-03-01T09:53:56;102617.44;;;10.30;48.77
43824;BME280;29470;53.550;9.926;2023-03-01T09:59:08;102608.50;;;10.80;47.44
43824;BME280;29470;53.550;9.926;2023-03-01T10:04:27;102624.28;;;10.21;49.96
43824;BME280;29470;53.550;9.926;2023-03-01T10:09:33;102620.19;;;9.72;50.31
43824;BME280;29470;53.550;9.926;2023-03-01T10:14:40;102618.81;;;9.76;51.69
43824;BME280;29470;53.550;9.926;2023-03-01T10:19:47;102623.13;;;9.50;52.24
43824;BME280;29470;53.550;9.926;2023-03-01T10:24:52;102615.78;;;9.71;52.76
43824;BME280;29470;53.550;9.926;2023-03-01T10:30:13;102624.03;;;9.17;53.01
43824;BME280;29470;53.550;9.926;2023-03-01T10:35:23;102618.88;;;9.93;51.71
43824;BME280;29470;53.550;9.926;2023-03-01T10:40:28;102609.84;;;10.14;51.88
43824;BME280;29470;53.550;9.926;2023-03-01T10:45:34;102612.06;;;10.02;51.14
43824;BME280;29470;53.550;9.926;2023-03-01T10:50:37;102613.94;;;9.61;52.22
43824;BME280;29470;53.550;9.926;2023-03-01T10:55:44;102607.72;;;9.68;52.51
43824;BME280;29470;53.550;9.926;2023-03-01T11:00:49;102614.88;;;9.37;53.82
43824;BME280;29470;53.550;9.926;2023-03-01T11:05:56;102608.59;;;9.01;56.08
43824;BME280;29470;53.550;9.926;2023-03-01T11:11:18;102601.41;;;9.14;56.14
43824;BME280;29470;53.550;9.926;2023-03-01T11:16:31;102601.13;;;8.71;57.74
43824;BME280;29470;53.550;9.926;2023-03-01T11:21:36;102592.72;;;8.89;58.28
43824;BME280;29470;53.550;9.926;2023-03-01T11:26:46;102588.53;;;8.74;58.47
43824;BME280;29470;53.550;9.926;2023-03-01T11:31:50;102583.69;;;9.02;58.78
43824;BME280;29470;53.550;9.926;2023-03-01T11:36:59;102581.22;;;8.94;59.05
43824;BME280;29470;53.550;9.926;2023-03-01T11:42:11;102585.38;;;9.26;56.78
43824;BME280;29470;53.550;9.926;2023-03-01T11:47:33;102580.25;;;9.86;55.78
43824;BME280;29470;53.550;9.926;2023-03-01T11:52:48;102569.91;;;9.35;57.04
43824;BME280;29470;53.550;9.926;2023-03-01T11:58:14;102569.91;;;9.68;56.23
43824;BME280;29470;53.550;9.926;2023-03-01T12:03:28;102563.47;;;9.56;56.33
43824;BME280;29470;53.550;9.926;2023-03-01T12:08:36;102553.00;;;9.63;55.97
43824;BME280;29470;53.550;9.926;2023-03-01T12:14:04;102551.53;;;9.92;55.33
43824;BME280;29470;53.550;9.926;2023-03-01T12:19:40;102542.09;;;9.92;56.04
43824;BME280;29470;53.550;9.926;2023-03-01T12:24:58;102539.88;;;10.22;55.04
43824;BME280;29470;53.550;9.926;2023-03-01T12:30:20;102533.63;;;10.20;55.44
43824;BME280;29470;53.550;9.926;2023-03-01T12:41:25;102513.25;;;10.05;56.30
43824;BME280;29470;53.550;9.926;2023-03-01T12:46:46;102516.53;;;9.60;57.31
43824;BME280;29470;53.550;9.926;2023-03-01T12:51:57;102505.84;;;9.48;58.19
43824;BME280;29470;53.550;9.926;2023-03-01T12:57:08;102494.38;;;9.97;56.72
43824;BME280;29470;53.550;9.926;2023-03-01T13:02:19;102500.00;;;8.91;59.10
43824;BME280;29470;53.550;9.926;2023-03-01T13:07:29;102494.97;;;9.77;57.62
43824;BME280;29470;53.550;9.926;2023-03-01T13:12:50;102488.25;;;9.53;57.68
43824;BME280;29470;53.550;9.926;2023-03-01T13:17:56;102486.16;;;9.75;57.11
43824;BME280;29470;53.550;9.926;2023-03-01T13:23:06;102482.19;;;9.70;57.64
43824;BME280;29470;53.550;9.926;2023-03-01T13:28:40;102482.19;;;9.79;57.50
43824;BME280;29470;53.550;9.926;2023-03-01T13:33:46;102478.53;;;9.77;56.89
43824;BME280;29470;53.550;9.926;2023-03-01T13:38:56;102470.78;;;9.68;57.22
43824;BME280;29470;53.550;9.926;2023-03-01T13:43:59;102472.78;;;9.79;57.50
43824;BME280;29470;53.550;9.926;2023-03-01T13:49:03;102461.50;;;9.70;58.13
43824;BME280;29470;53.550;9.926;2023-03-01T13:54:11;102456.94;;;9.50;60.23
43824;BME280;29470;53.550;9.926;2023-03-01T13:59:16;102464.00;;;9.26;61.97
43824;BME280;29470;53.550;9.926;2023-03-01T14:04:23;102465.66;;;9.25;62.84
43824;BME280;29470;53.550;9.926;2023-03-01T14:09:28;102459.44;;;8.81;63.60
43824;BME280;29470;53.550;9.926;2023-03-01T14:14:45;102442.56;;;9.18;62.92
43824;BME280;29470;53.550;9.926;2023-03-01T14:19:56;102436.94;;;9.22;62.34
43824;BME280;29470;53.550;9.926;2023-03-01T14:25:01;102436.75;;;9.03;63.20
43824;BME280;29470;53.550;9.926;2023-03-01T14:30:12;102424.84;;;9.39;62.13
43824;BME280;29470;53.550;9.926;2023-03-01T14:35:22;102430.34;;;8.99;62.88
43824;BME280;29470;53.550;9.926;2023-03-01T14:40:27;102418.13;;;9.23;62.52
43824;BME280;29470;53.550;9.926;2023-03-01T14:45:31;102416.44;;;9.15;62.63
43824;BME280;29470;53.550;9.926;2023-03-01T14:50:40;102413.09;;;9.16;62.27
43824;BME280;29470;53.550;9.926;2023-03-01T14:55:46;102403.91;;;8.93;63.58
43824;BME280;29470;53.550;9.926;2023-03-01T15:00:51;102395.72;;;8.97;63.41
43824;BME280;29470;53.550;9.926;2023-03-01T15:05:56;102383.69;;;9.49;60.44
43824;BME280;29470;53.550;9.926;2023-03-01T15:11:03;102383.06;;;9.34;60.50
43824;BME280;29470;53.550;9.926;2023-03-01T15:16:11;102380.63;;;9.36;60.42
43824;BME280;29470;53.550;9.926;2023-03-01T15:21:18;102377.16;;;9.35;60.76
43824;BME280;29470;53.550;9.926;2023-03-01T15:26:24;102374.09;;;9.31;60.58
43824;BME280;29470;53.550;9.926;2023-03-01T15:31:29;102371.66;;;9.23;60.90
43824;BME280;29470;53.550;9.926;2023-03-01T15:36:41;102375.28;;;9.25;60.47
43824;BME280;29470;53.550;9.926;2023-03-01T15:41:47;102371.16;;;9.10;61.40
43824;BME280;29470;53.550;9.926;2023-03-01T15:46:50;102366.63;;;9.16;60.87
43824;BME280;29470;53.550;9.926;2023-03-01T15:51:55;102367.56;;;9.25;59.68
43824;BME280;29470;53.550;9.926;2023-03-01T15:56:59;102372.91;;;8.76;61.98
43824;BME280;29470;53.550;9.926;2023-03-01T16:02:01;102371.41;;;8.87;62.53
43824;BME280;29470;53.550;9.926;2023-03-01T16:07:06;102367.34;;;8.97;62.34
43824;BME280;29470;53.550;9.926;2023-03-01T16:12:12;102373.53;;;8.82;62.98
43824;BME280;29470;53.550;9.926;2023-03-01T16:17:16;102370.97;;;8.82;64.29
43824;BME280;29470;53.550;9.926;2023-03-01T16:22:20;102365.28;;;8.68;65.11
43824;BME280;29470;53.550;9.926;2023-03-01T16:27:26;102360.59;;;8.73;65.03
43824;BME280;29470;53.550;9.926;2023-03-01T16:32:29;102360.94;;;8.51;65.82
43824;BME280;29470;53.550;9.926;2023-03-01T16:37:34;102359.97;;;8.42;66.58
43824;BME280;29470;53.550;9.926;2023-03-01T16:42:37;102363.78;;;8.46;67.00
43824;BME280;29470;53.550;9.926;2023-03-01T16:47:42;102372.84;;;8.42;66.73
43824;BME280;29470;53.550;9.926;2023-03-01T16:52:46;102359.53;;;8.21;67.44
43824;BME280;29470;53.550;9.926;2023-03-01T16:57:49;102360.38;;;8.29;66.79
43824;BME280;29470;53.550;9.926;2023-03-01T17:02:53;102365.63;;;7.97;67.63
43824;BME280;29470;53.550;9.926;2023-03-01T17:07:58;102375.19;;;7.98;67.42
43824;BME280;29470;53.550;9.926;2023-03-01T17:13:01;102376.19;;;8.16;65.82
43824;BME280;29470;53.550;9.926;2023-03-01T17:18:04;102380.47;;;7.75;67.20
43824;BME280;29470;53.550;9.926;2023-03-01T17:23:08;102383.97;;;7.59;67.93
43824;BME280;29470;53.550;9.926;2023-03-01T17:28:12;102389.53;;;7.39;69.24
43824;BME280;29470;53.550;9.926;2023-03-01T17:33:15;102379.31;;;7.48;69.44
43824;BME280;29470;53.550;9.926;2023-03-01T17:38:20;102382.47;;;7.45;69.53
43824;BME280;29470;53.550;9.926;2023-03-01T17:43:22;102374.31;;;7.65;68.86
43824;BME280;29470;53.550;9.926;2023-03-01T17:48:25;102385.03;;;7.45;70.14
43824;BME280;29470;53.550;9.926;2023-03-01T17:53:30;102390.09;;;7.52;70.37
43824;BME280;29470;53.550;9.926;2023-03-01T17:58:33;102403.88;;;7.37;71.13
43824;BME280;29470;53.550;9.926;2023-03-01T18:03:37;102411.34;;;7.27;71.90
43824;BME280;29470;53.550;9.926;2023-03-01T18:08:41;102410.56;;;6.96;73.62
43824;BME280;29470;53.550;9.926;2023-03-01T18:13:45;102412.53;;;6.82;75.64
43824;BME280;29470;53.550;9.926;2023-03-01T18:18:52;102410.72;;;6.51;77.74
43824;BME280;29470;53.550;9.926;2023-03-01T18:23:57;102411.91;;;6.69;76.37
43824;BME280;29470;53.550;9.926;2023-03-01T18:29:01;102409.00;;;6.66;75.73
43824;BME280;29470;53.550;9.926;2023-03-01T18:34:05;102410.19;;;6.53;75.81
43824;BME280;29470;53.550;9.926;2023-03-01T18:39:09;102409.44;;;6.54;75.11
43824;BME280;29470;53.550;9.926;2023-03-01T18:44:12;102416.22;;;6.30;75.24
43824;BME280;29470;53.550;9.926;2023-03-01T18:49:15;102415.63;;;6.02;76.11
43824;BME280;29470;53.550;9.926;2023-03-01T18:54:20;102421.16;;;6.29;76.00
43824;BME280;29470;53.550;9.926;2023-03-01T18:59:22;102419.44;;;6.13;76.46
43824;BME280;29470;53.550;9.926;2023-03-01T19:04:25;102424.69;;;6.22;77.12
43824;BME280;29470;53.550;9.926;2023-03-01T19:09:29;102430.03;;;5.71;78.40
43824;BME280;29470;53.550;9.926;2023-03-01T19:14:32;102436.78;;;5.19;80.29
43824;BME280;29470;53.550;9.926;2023-03-01T19:19:37;102440.84;;;4.88;81.83
43824;BME280;29470;53.550;9.926;2023-03-01T19:24:42;102439.72;;;4.78;83.22
43824;BME280;29470;53.550;9.926;2023-03-01T19:29:45;102457.31;;;4.75;85.27
43824;BME280;29470;53.550;9.926;2023-03-01T19:34:47;102446.50;;;4.85;84.70
43824;BME280;29470;53.550;9.926;2023-03-01T19:39:52;102453.47;;;5.00;86.07
43824;BME280;29470;53.550;9.926;2023-03-01T19:44:54;102451.81;;;4.86;87.99
43824;BME280;29470;53.550;9.926;2023-03-01T19:49:57;102459.69;;;5.10;87.27
43824;BME280;29470;53.550;9.926;2023-03-01T19:55:05;102445.03;;;4.94;88.57
43824;BME280;29470;53.550;9.926;2023-03-01T20:00:11;102450.50;;;5.26;88.61
43824;BME280;29470;53.550;9.926;2023-03-01T20:05:15;102455.97;;;5.44;87.54
43824;BME280;29470;53.550;9.926;2023-03-01T20:10:19;102466.59;;;5.47;87.05
43824;BME280;29470;53.550;9.926;2023-03-01T20:15:29;102463.88;;;5.31;90.11
43824;BME280;29470;53.550;9.926;2023-03-01T20:20:32;102456.13;;;5.53;86.98
43824;BME280;29470;53.550;9.926;2023-03-01T20:25:39;102452.91;;;5.18;88.95
43824;BME280;29470;53.550;9.926;2023-03-01T20:30:42;102446.09;;;5.33;89.76
43824;BME280;29470;53.550;9.926;2023-03-01T20:35:45;102436.06;;;5.05;90.67
43824;BME280;29470;53.550;9.926;2023-03-01T20:40:49;102445.69;;;5.51;89.71
43824;BME280;29470;53.550;9.926;2023-03-01T20:45:52;102456.03;;;5.00;92.43
43824;BME280;29470;53.550;9.926;2023-03-01T20:50:54;102452.09;;;5.55;89.25
43824;BME280;29470;53.550;9.926;2023-03-01T20:56:04;102457.69;;;5.22;89.61
43824;BME280;29470;53.550;9.926;2023-03-01T21:01:09;102454.91;;;5.06;89.97
43824;BME280;29470;53.550;9.926;2023-03-01T21:06:12;102451.25;;;5.18;90.26
43824;BME280;29470;53.550;9.926;2023-03-01T21:11:16;102448.81;;;5.41;88.13
43824;BME280;29470;53.550;9.926;2023-03-01T21:16:20;102440.41;;;5.35;89.70
43824;BME280;29470;53.550;9.926;2023-03-01T21:21:23;102454.66;;;5.55;87.62
43824;BME280;29470;53.550;9.926;2023-03-01T21:26:27;102457.53;;;5.72;88.15
43824;BME280;29470;53.550;9.926;2023-03-01T21:31:31;102453.66;;;5.02;90.53
43824;BME280;29470;53.550;9.926;2023-03-01T21:36:35;102443.00;;;5.28;89.06
43824;BME280;29470;53.550;9.926;2023-03-01T21:41:39;102452.66;;;5.52;87.39
43824;BME280;29470;53.550;9.926;2023-03-01T21:46:42;102452.09;;;5.55;88.10
43824;BME280;29470;53.550;9.926;2023-03-01T21:51:44;102449.34;;;5.53;87.45
43824;BME280;29470;53.550;9.926;2023-03-01T21:56:49;102447.28;;;5.72;86.43
43824;BME280;29470;53.550;9.926;2023-03-01T22:01:51;102462.91;;;5.59;87.51
43824;BME280;29470;53.550;9.926;2023-03-01T22:06:54;102458.19;;;5.41;88.70
43824;BME280;29470;53.550;9.926;2023-03-01T22:11:58;102448.81;;;5.49;89.35
43824;BME280;29470;53.550;9.926;2023-03-01T22:17:03;102457.56;;;5.58;88.42
43824;BME280;29470;53.550;9.926;2023-03-01T22:22:06;102457.00;;;5.75;86.86
43824;BME280;29470;53.550;9.926;2023-03-01T22:27:10;102452.66;;;5.59;87.49
43824;BME280;29470;53.550;9.926;2023-03-01T22:32:13;102443.69;;;5.34;89.13
43824;BME280;29470;53.550;9.926;2023-03-01T22:37:15;102434.00;;;5.91;86.09
43824;BME280;29470;53.550;9.926;2023-03-01T22:42:20;102442.09;;;5.87;85.26
43824;BME280;29470;53.550;9.926;2023-03-01T22:47:25;102431.22;;;5.44;88.45
43824;BME280;29470;53.550;9.926;2023-03-01T22:52:36;102428.88;;;5.84;86.15
43824;BME280;29470;53.550;9.926;2023-03-01T22:57:41;102424.63;;;6.06;85.16
43824;BME280;29470;53.550;9.926;2023-03-01T23:02:44;102433.25;;;5.92;85.16
43824;BME280;29470;53.550;9.926;2023-03-01T23:07:47;102435.72;;;5.76;84.36
43824;BME280;29470;53.550;9.926;2023-03-01T23:12:52;102443.81;;;5.72;85.31
43824;BME280;29470;53.550;9.926;2023-03-01T23:17:55;102433.47;;;5.86;84.84
43824;BME280;29470;53.550;9.926;2023-03-01T23:22:58;102426.88;;;5.88;84.67
43824;BME280;29470;53.550;9.926;2023-03-01T23:28:04;102432.09;;;5.59;86.46
43824;BME280;29470;53.550;9.926;2023-03-01T23:33:07;102429.59;;;5.38;86.79
43824;BME280;29470;53.550;9.926;2023-03-01T23:38:10;102425.94;;;5.36;86.57
43824;BME280;29470;53.550;9.926;2023-03-01T23:43:14;102434.50;;;5.51;87.15
43824;BME280;29470;53.550;9.926;2023-03-01T23:48:17;102437.91;;;5.13;89.04
43824;BME280;29470;53.550;9.926;2023-03-01T23:53:20;102432.34;;;5.32;87.55
43824;BME280;29470;53.550;9.926;2023-03-01T23:58:25;102423.88;;;5.40;87.48
